sensor_id;sensor_type;location;lat;lon;timestamp;pressure;altitude;pressure_sealevel;temperature;humidity
64679;BME280;51094;53.864;27.676;2022-10-03T00:01:23;97630.69;;;8.30;80.38
64679;BME280;51094;53.864;27.676;2022-10-03T00:04:13;97624.28;;;8.25;79.73
64679;BME280;51094;53.864;27.676;2022-10-03T00:15:28;97617.09;;;7.88;79.97
64679;BME280;51094;53.864;27.676;2022-10-03T00:37:43;97582.56;;;8.09;80.85
64679;BME280;51094;53.864;27.676;2022-10-03T00:43:58;97558.44;;;8.08;80.85
64679;BME280;51094;53.864;27.676;2022-10-03T00:53:05;97504.16;;;7.68;80.47
64679;BME280;51094;53.864;27.676;2022-10-03T00:56:17;97360.53;;;6.85;80.75
64679;BME280;51094;53.864;27.676;2022-10-03T00:58:50;97550.28;;;8.13;80.46
64679;BME280;51094;53.864;27.676;2022-10-03T01:04:06;97536.91;;;8.27;81.03
64679;BME280;51094;53.864;27.676;2022-10-03T01:06:45;97427.50;;;7.57;80.24
64679;BME280;51094;53.864;27.676;2022-10-03T01:15:13;97533.78;;;8.14;79.68
64679;BME280;51094;53.864;27.676;2022-10-03T01:23:16;97527.66;;;8.15;80.26
64679;BME280;51094;53.864;27.676;2022-10-03T01:25:58;97521.13;;;8.11;80.02
64679;BME280;51094;53.864;27.676;2022-10-03T01:28:40;97515.81;;;8.12;80.50
64679;BME280;51094;53.864;27.676;2022-10-03T01:31:33;97432.53;;;7.59;79.92
64679;BME280;51094;53.864;27.676;2022-10-03T01:34:24;97508.66;;;7.85;80.27
64679;BME280;51094;53.864;27.676;2022-10-03T01:39:49;97425.41;;;7.42;80.06
64679;BME280;51094;53.864;27.676;2022-10-03T01:42:43;97506.50;;;7.90;80.56
64679;BME280;51094;53.864;27.676;2022-10-03T01:48:01;97503.66;;;7.93;81.06
64679;BME280;51094;53.864;27.676;2022-10-03T01:50:35;97499.97;;;7.96;80.58
64679;BME280;51094;53.864;27.676;2022-10-03T01:58:53;97505.03;;;7.97;80.17
64679;BME280;51094;53.864;27.676;2022-10-03T02:01:33;97157.53;;;5.94;80.87
64679;BME280;51094;53.864;27.676;2022-10-03T02:04:11;97252.50;;;6.60;80.33
64679;BME280;51094;53.864;27.676;2022-10-03T02:09:37;97480.78;;;7.98;80.02
64679;BME280;51094;53.864;27.676;2022-10-03T02:12:22;97400.91;;;7.26;79.82
64679;BME280;51094;53.864;27.676;2022-10-03T02:14:58;97475.59;;;7.98;80.14
64679;BME280;51094;53.864;27.676;2022-10-03T02:17:42;97465.38;;;7.87;80.03
64679;BME280;51094;53.864;27.676;2022-10-03T02:20:24;97472.44;;;7.85;80.28
64679;BME280;51094;53.864;27.676;2022-10-03T02:22:56;97407.47;;;7.50;80.75
64679;BME280;51094;53.864;27.676;2022-10-03T02:25:30;97278.41;;;6.79;80.68
64679;BME280;51094;53.864;27.676;2022-10-03T02:28:07;97458.44;;;7.78;80.03
64679;BME280;51094;53.864;27.676;2022-10-03T02:31:05;97461.41;;;7.83;80.70
64679;BME280;51094;53.864;27.676;2022-10-03T02:39:20;97401.72;;;7.37;80.56
64679;BME280;51094;53.864;27.676;2022-10-03T02:42:04;97438.97;;;7.74;79.77
64679;BME280;51094;53.864;27.676;2022-10-03T02:45:00;97429.38;;;7.55;80.46
64679;BME280;51094;53.864;27.676;2022-10-03T03:00:03;97312.16;;;7.07;81.34
64679;BME280;51094;53.864;27.676;2022-10-03T03:10:54;97427.22;;;7.60;80.85
64679;BME280;51094;53.864;27.676;2022-10-03T03:13:50;97307.25;;;7.04;81.20
64679;BME280;51094;53.864;27.676;2022-10-03T03:27:46;97351.91;;;7.15;81.38
64679;BME280;51094;53.864;27.676;2022-10-03T03:30:19;97346.34;;;7.39;81.93
64679;BME280;51094;53.864;27.676;2022-10-03T03:36:01;97219.78;;;6.80;81.67
64679;BME280;51094;53.864;27.676;2022-10-03T03:38:47;97320.22;;;7.52;81.57
64679;BME280;51094;53.864;27.676;2022-10-03T03:44:08;97408.00;;;7.44;80.94
64679;BME280;51094;53.864;27.676;2022-10-03T03:47:00;97315.75;;;7.34;80.66
64679;BME280;51094;53.864;27.676;2022-10-03T03:49:54;97241.81;;;6.93;81.64
64679;BME280;51094;53.864;27.676;2022-10-03T03:52:29;97302.69;;;7.36;81.32
64679;BME280;51094;53.864;27.676;2022-10-03T04:00:33;97299.13;;;7.18;82.09
64679;BME280;51094;53.864;27.676;2022-10-03T04:28:53;97337.44;;;7.03;80.70
64679;BME280;51094;53.864;27.676;2022-10-03T04:31:48;97263.88;;;7.07;81.37
64679;BME280;51094;53.864;27.676;2022-10-03T04:42:26;97237.34;;;7.15;81.39
64679;BME280;51094;53.864;27.676;2022-10-03T04:47:47;97217.88;;;7.01;80.78
64679;BME280;51094;53.864;27.676;2022-10-03T04:50:27;97072.66;;;6.11;80.77
64679;BME280;51094;53.864;27.676;2022-10-03T04:55:54;97208.78;;;7.16;81.49
64679;BME280;51094;53.864;27.676;2022-10-03T04:58:38;97079.91;;;6.26;80.88
64679;BME280;51094;53.864;27.676;2022-10-03T05:01:23;97196.53;;;7.09;81.28
64679;BME280;51094;53.864;27.676;2022-10-03T05:04:01;97194.63;;;7.20;81.73
64679;BME280;51094;53.864;27.676;2022-10-03T05:07:10;97178.03;;;7.13;80.93
64679;BME280;51094;53.864;27.676;2022-10-03T05:12:56;97210.41;;;7.17;80.53
64679;BME280;51094;53.864;27.676;2022-10-03T05:15:27;97153.97;;;7.22;81.17
64679;BME280;51094;53.864;27.676;2022-10-03T05:18:04;97143.63;;;7.22;81.26
64679;BME280;51094;53.864;27.676;2022-10-03T05:20:47;97138.09;;;6.88;80.79
64679;BME280;51094;53.864;27.676;2022-10-03T05:23:31;97090.38;;;6.54;80.87
64679;BME280;51094;53.864;27.676;2022-10-03T05:26:03;97132.06;;;7.07;81.26
64679;BME280;51094;53.864;27.676;2022-10-03T05:29:13;97129.75;;;7.14;81.42
64679;BME280;51094;53.864;27.676;2022-10-03T05:34:19;97127.19;;;6.94;80.93
64679;BME280;51094;53.864;27.676;2022-10-03T05:42:33;97104.63;;;6.87;81.58
64679;BME280;51094;53.864;27.676;2022-10-03T05:47:50;97164.59;;;6.81;81.68
64679;BME280;51094;53.864;27.676;2022-10-03T05:50:33;97174.78;;;6.82;82.15
64679;BME280;51094;53.864;27.676;2022-10-03T06:04:09;97073.66;;;6.77;82.18
64679;BME280;51094;53.864;27.676;2022-10-03T06:06:50;97003.28;;;6.46;82.16
64679;BME280;51094;53.864;27.676;2022-10-03T06:12:03;97100.50;;;7.23;81.80
64679;BME280;51094;53.864;27.676;2022-10-03T06:20:00;96884.34;;;5.62;81.24
64679;BME280;51094;53.864;27.676;2022-10-03T06:22:50;97116.03;;;7.04;80.58
64679;BME280;51094;53.864;27.676;2022-10-03T06:25:55;97113.31;;;6.95;81.24
64679;BME280;51094;53.864;27.676;2022-10-03T06:32:02;97142.03;;;6.92;81.15
64679;BME280;51094;53.864;27.676;2022-10-03T07:03:01;97064.28;;;6.76;81.25
64679;BME280;51094;53.864;27.676;2022-10-03T07:16:49;97051.06;;;6.89;82.49
64679;BME280;51094;53.864;27.676;2022-10-03T07:37:33;97055.16;;;6.62;80.11
64679;BME280;51094;53.864;27.676;2022-10-03T07:40:37;97057.75;;;6.62;81.41
64679;BME280;51094;53.864;27.676;2022-10-03T07:46:42;96980.47;;;5.93;81.76
64679;BME280;51094;53.864;27.676;2022-10-03T07:52:25;96945.56;;;6.09;81.49
64679;BME280;51094;53.864;27.676;2022-10-03T07:55:20;97055.56;;;6.67;81.23
64679;BME280;51094;53.864;27.676;2022-10-03T08:03:35;97045.66;;;6.53;81.10
64679;BME280;51094;53.864;27.676;2022-10-03T08:06:35;96867.75;;;5.36;80.74
64679;BME280;51094;53.864;27.676;2022-10-03T08:14:46;97042.38;;;6.71;80.52
64679;BME280;51094;53.864;27.676;2022-10-03T08:17:26;97042.94;;;6.74;80.67
64679;BME280;51094;53.864;27.676;2022-10-03T08:28:27;97043.22;;;6.32;79.90
64679;BME280;51094;53.864;27.676;2022-10-03T08:36:58;97044.16;;;6.22;79.48
64679;BME280;51094;53.864;27.676;2022-10-03T08:48:25;97036.16;;;6.15;79.31
64679;BME280;51094;53.864;27.676;2022-10-03T08:56:21;97030.84;;;6.17;79.86
64679;BME280;51094;53.864;27.676;2022-10-03T09:04:49;97032.38;;;6.39;80.11
64679;BME280;51094;53.864;27.676;2022-10-03T09:16:16;96970.63;;;5.68;79.97
64679;BME280;51094;53.864;27.676;2022-10-03T09:22:08;97057.25;;;5.80;79.76
64679;BME280;51094;53.864;27.676;2022-10-03T09:41:28;96958.13;;;5.63;79.36
64679;BME280;51094;53.864;27.676;2022-10-03T09:44:05;97033.97;;;6.11;78.97
64679;BME280;51094;53.864;27.676;2022-10-03T09:50:16;97026.94;;;6.03;77.99
64679;BME280;51094;53.864;27.676;2022-10-03T09:53:25;97025.97;;;5.94;78.27
64679;BME280;51094;53.864;27.676;2022-10-03T10:01:46;96996.22;;;5.41;79.09
64679;BME280;51094;53.864;27.676;2022-10-03T10:04:39;97009.69;;;5.54;78.78
64679;BME280;51094;53.864;27.676;2022-10-03T10:21:50;97015.97;;;5.61;79.87
64679;BME280;51094;53.864;27.676;2022-10-03T10:24:31;97028.31;;;5.67;80.15
64679;BME280;51094;53.864;27.676;2022-10-03T10:48:15;97015.16;;;5.30;80.52
64679;BME280;51094;53.864;27.676;2022-10-03T10:51:08;97014.06;;;5.23;79.97
64679;BME280;51094;53.864;27.676;2022-10-03T10:54:13;97030.19;;;5.15;80.70
64679;BME280;51094;53.864;27.676;2022-10-03T11:00:20;96907.44;;;4.44;80.76
64679;BME280;51094;53.864;27.676;2022-10-03T11:03:39;97018.00;;;5.27;80.75
64679;BME280;51094;53.864;27.676;2022-10-03T11:12:24;97014.34;;;5.60;80.54
64679;BME280;51094;53.864;27.676;2022-10-03T11:20:53;96984.59;;;5.06;80.00
64679;BME280;51094;53.864;27.676;2022-10-03T11:35:09;97003.75;;;4.92;81.68
64679;BME280;51094;53.864;27.676;2022-10-03T11:37:54;97002.00;;;4.93;81.28
64679;BME280;51094;53.864;27.676;2022-10-03T11:41:07;96996.59;;;4.96;81.85
64679;BME280;51094;53.864;27.676;2022-10-03T11:44:17;96991.19;;;4.99;81.44
64679;BME280;51094;53.864;27.676;2022-10-03T11:46:53;96891.56;;;4.29;80.62
64679;BME280;51094;53.864;27.676;2022-10-03T12:01:27;97003.56;;;5.05;81.79
64679;BME280;51094;53.864;27.676;2022-10-03T12:10:07;97012.16;;;5.15;80.63
64679;BME280;51094;53.864;27.676;2022-10-03T12:12:39;96213.88;;;0.25;80.51
64679;BME280;51094;53.864;27.676;2022-10-03T12:18:13;97051.75;;;5.24;81.13
64679;BME280;51094;53.864;27.676;2022-10-03T12:20:59;97011.22;;;5.16;81.38
64679;BME280;51094;53.864;27.676;2022-10-03T12:23:39;97011.72;;;5.50;80.38
64679;BME280;51094;53.864;27.676;2022-10-03T12:26:16;97003.09;;;5.30;80.29
64679;BME280;51094;53.864;27.676;2022-10-03T12:28:50;96938.44;;;4.93;80.71
64679;BME280;51094;53.864;27.676;2022-10-03T12:31:27;97025.47;;;5.60;79.27
64679;BME280;51094;53.864;27.676;2022-10-03T12:37:03;97005.34;;;5.45;80.42
64679;BME280;51094;53.864;27.676;2022-10-03T12:39:44;97009.41;;;5.47;81.15
64679;BME280;51094;53.864;27.676;2022-10-03T12:42:25;97012.97;;;5.56;80.38
64679;BME280;51094;53.864;27.676;2022-10-03T12:53:24;97004.16;;;5.58;80.12
64679;BME280;51094;53.864;27.676;2022-10-03T12:56:12;97044.72;;;5.66;79.88
64679;BME280;51094;53.864;27.676;2022-10-03T12:58:51;97018.56;;;5.80;80.58
64679;BME280;51094;53.864;27.676;2022-10-03T13:01:33;97011.88;;;5.68;78.86
64679;BME280;51094;53.864;27.676;2022-10-03T13:04:10;97017.44;;;5.54;79.57
64679;BME280;51094;53.864;27.676;2022-10-03T13:07:08;96663.34;;;3.19;80.02
64679;BME280;51094;53.864;27.676;2022-10-03T13:09:55;97018.13;;;5.56;80.40
64679;BME280;51094;53.864;27.676;2022-10-03T13:12:47;97024.47;;;5.52;78.61
64679;BME280;51094;53.864;27.676;2022-10-03T13:21:14;97018.13;;;5.65;79.60
64679;BME280;51094;53.864;27.676;2022-10-03T13:27:15;97023.56;;;5.72;79.72
64679;BME280;51094;53.864;27.676;2022-10-03T13:32:36;97033.09;;;5.81;78.79
64679;BME280;51094;53.864;27.676;2022-10-03T13:41:04;97039.81;;;5.53;78.59
64679;BME280;51094;53.864;27.676;2022-10-03T13:43:37;97046.63;;;5.64;78.28
64679;BME280;51094;53.864;27.676;2022-10-03T13:46:15;97048.81;;;5.68;78.91
64679;BME280;51094;53.864;27.676;2022-10-03T13:48:55;96928.03;;;5.05;78.68
64679;BME280;51094;53.864;27.676;2022-10-03T13:54:08;97027.53;;;5.36;79.47
64679;BME280;51094;53.864;27.676;2022-10-03T13:56:57;97070.50;;;5.66;79.31
64679;BME280;51094;53.864;27.676;2022-10-03T14:00:02;96632.75;;;2.85;78.53
64679;BME280;51094;53.864;27.676;2022-10-03T14:11:33;97082.22;;;5.40;79.58
64679;BME280;51094;53.864;27.676;2022-10-03T14:16:43;97078.22;;;5.26;79.25
64679;BME280;51094;53.864;27.676;2022-10-03T14:19:21;97058.22;;;4.88;79.59
64679;BME280;51094;53.864;27.676;2022-10-03T14:22:05;97158.19;;;5.15;79.31
64679;BME280;51094;53.864;27.676;2022-10-03T14:27:41;97018.00;;;4.66;80.09
64679;BME280;51094;53.864;27.676;2022-10-03T14:30:13;97089.31;;;5.17;79.71
64679;BME280;51094;53.864;27.676;2022-10-03T14:33:03;97148.72;;;5.25;80.42
64679;BME280;51094;53.864;27.676;2022-10-03T14:38:50;97099.00;;;5.34;80.14
64679;BME280;51094;53.864;27.676;2022-10-03T14:44:06;97129.25;;;5.32;79.20
64679;BME280;51094;53.864;27.676;2022-10-03T14:46:45;97092.59;;;5.28;79.48
64679;BME280;51094;53.864;27.676;2022-10-03T14:49:22;97182.41;;;5.33;80.24
64679;BME280;51094;53.864;27.676;2022-10-03T14:52:22;96978.81;;;4.62;79.71
64679;BME280;51094;53.864;27.676;2022-10-03T14:54:54;97072.34;;;5.14;78.99
64679;BME280;51094;53.864;27.676;2022-10-03T14:57:34;97109.22;;;5.15;79.42
64679;BME280;51094;53.864;27.676;2022-10-03T15:05:59;97115.22;;;5.25;79.95
64679;BME280;51094;53.864;27.676;2022-10-03T15:08:37;97126.81;;;4.89;79.27
64679;BME280;51094;53.864;27.676;2022-10-03T15:11:06;97129.28;;;5.11;80.10
64679;BME280;51094;53.864;27.676;2022-10-03T15:13:38;97022.31;;;4.24;79.52
64679;BME280;51094;53.864;27.676;2022-10-03T15:16:08;97125.31;;;5.07;79.89
64679;BME280;51094;53.864;27.676;2022-10-03T15:18:40;96999.53;;;4.19;80.18
64679;BME280;51094;53.864;27.676;2022-10-03T15:21:18;97015.84;;;4.29;80.09
64679;BME280;51094;53.864;27.676;2022-10-03T15:23:45;97144.84;;;4.89;80.20
64679;BME280;51094;53.864;27.676;2022-10-03T15:26:18;97148.34;;;4.88;80.47
64679;BME280;51094;53.864;27.676;2022-10-03T15:28:49;97142.00;;;4.92;80.69
64679;BME280;51094;53.864;27.676;2022-10-03T15:31:25;97137.63;;;5.04;80.89
64679;BME280;51094;53.864;27.676;2022-10-03T15:33:56;97154.78;;;5.14;81.25
64679;BME280;51094;53.864;27.676;2022-10-03T15:36:32;97061.75;;;4.34;80.41
64679;BME280;51094;53.864;27.676;2022-10-03T15:39:16;97216.44;;;4.74;80.77
64679;BME280;51094;53.864;27.676;2022-10-03T15:41:51;97156.56;;;4.82;80.88
64679;BME280;51094;53.864;27.676;2022-10-03T15:44:30;97126.84;;;4.57;81.60
64679;BME280;51094;53.864;27.676;2022-10-03T15:49:57;97092.66;;;3.91;81.40
64679;BME280;51094;53.864;27.676;2022-10-03T15:52:34;97161.22;;;4.67;81.37
64679;BME280;51094;53.864;27.676;2022-10-03T15:55:05;97055.31;;;4.08;81.76
64679;BME280;51094;53.864;27.676;2022-10-03T15:57:43;97047.41;;;3.99;81.27
64679;BME280;51094;53.864;27.676;2022-10-03T16:00:22;97049.25;;;4.09;81.84
64679;BME280;51094;53.864;27.676;2022-10-03T16:02:59;97174.09;;;4.88;81.57
64679;BME280;51094;53.864;27.676;2022-10-03T16:05:28;97176.94;;;4.85;81.92
64679;BME280;51094;53.864;27.676;2022-10-03T16:08:00;97180.66;;;4.92;81.43
64679;BME280;51094;53.864;27.676;2022-10-03T16:10:34;97268.88;;;5.05;82.13
64679;BME280;51094;53.864;27.676;2022-10-03T16:21:02;97186.97;;;5.20;81.62
64679;BME280;51094;53.864;27.676;2022-10-03T16:23:37;97111.47;;;4.66;81.16
64679;BME280;51094;53.864;27.676;2022-10-03T16:26:09;97085.34;;;4.50;80.79
64679;BME280;51094;53.864;27.676;2022-10-03T16:29:06;97179.25;;;5.20;81.13
64679;BME280;51094;53.864;27.676;2022-10-03T16:31:49;97132.91;;;4.67;80.10
64679;BME280;51094;53.864;27.676;2022-10-03T16:34:18;97207.94;;;5.15;80.03
64679;BME280;51094;53.864;27.676;2022-10-03T16:36:48;97166.22;;;5.00;81.00
64679;BME280;51094;53.864;27.676;2022-10-03T16:39:31;97200.09;;;5.17;80.65
64679;BME280;51094;53.864;27.676;2022-10-03T16:42:08;97174.69;;;4.91;80.50
64679;BME280;51094;53.864;27.676;2022-10-03T16:47:12;97201.25;;;4.92;80.49
64679;BME280;51094;53.864;27.676;2022-10-03T16:49:44;97253.13;;;4.87;81.36
64679;BME280;51094;53.864;27.676;2022-10-03T16:52:35;97178.88;;;4.72;81.25
64679;BME280;51094;53.864;27.676;2022-10-03T16:55:20;97253.28;;;4.75;81.40
64679;BME280;51094;53.864;27.676;2022-10-03T16:57:57;97113.63;;;4.18;81.73
64679;BME280;51094;53.864;27.676;2022-10-03T17:03:20;97207.91;;;4.94;82.33
64679;BME280;51094;53.864;27.676;2022-10-03T17:05:50;97214.69;;;4.95;81.41
64679;BME280;51094;53.864;27.676;2022-10-03T17:08:19;97368.66;;;4.92;82.07
64679;BME280;51094;53.864;27.676;2022-10-03T17:11:07;97216.66;;;5.03;81.79
64679;BME280;51094;53.864;27.676;2022-10-03T17:13:41;97212.81;;;4.97;81.33
64679;BME280;51094;53.864;27.676;2022-10-03T17:16:35;97222.69;;;4.81;81.95
64679;BME280;51094;53.864;27.676;2022-10-03T17:19:18;97089.72;;;3.95;82.21
64679;BME280;51094;53.864;27.676;2022-10-03T17:21:53;97199.75;;;4.57;82.35
64679;BME280;51094;53.864;27.676;2022-10-03T17:24:47;97180.66;;;4.60;82.40
64679;BME280;51094;53.864;27.676;2022-10-03T17:27:33;97218.47;;;4.91;82.19
64679;BME280;51094;53.864;27.676;2022-10-03T17:30:04;97237.06;;;4.95;82.39
64679;BME280;51094;53.864;27.676;2022-10-03T17:32:41;97067.81;;;3.69;82.21
64679;BME280;51094;53.864;27.676;2022-10-03T17:35:17;97235.38;;;5.05;82.49
64679;BME280;51094;53.864;27.676;2022-10-03T17:38:10;97233.09;;;4.91;81.47
64679;BME280;51094;53.864;27.676;2022-10-03T17:41:11;97248.88;;;4.97;82.24
64679;BME280;51094;53.864;27.676;2022-10-03T17:44:10;97241.84;;;4.99;82.38
64679;BME280;51094;53.864;27.676;2022-10-03T17:46:42;97235.84;;;5.10;82.01
64679;BME280;51094;53.864;27.676;2022-10-03T17:51:42;97314.41;;;5.16;82.70
64679;BME280;51094;53.864;27.676;2022-10-03T17:54:15;97215.75;;;4.93;81.14
64679;BME280;51094;53.864;27.676;2022-10-03T17:56:53;97193.94;;;4.76;81.63
64679;BME280;51094;53.864;27.676;2022-10-03T17:59:29;97299.94;;;5.24;82.07
64679;BME280;51094;53.864;27.676;2022-10-03T18:02:05;97224.63;;;5.00;81.45
64679;BME280;51094;53.864;27.676;2022-10-03T18:04:41;97259.41;;;5.26;81.89
64679;BME280;51094;53.864;27.676;2022-10-03T18:07:23;97256.91;;;5.36;82.23
64679;BME280;51094;53.864;27.676;2022-10-03T18:09:52;97277.84;;;5.43;81.72
64679;BME280;51094;53.864;27.676;2022-10-03T18:12:35;97258.63;;;5.47;81.29
64679;BME280;51094;53.864;27.676;2022-10-03T18:21:01;97210.59;;;4.93;81.68
64679;BME280;51094;53.864;27.676;2022-10-03T18:23:49;97270.81;;;5.45;81.43
64679;BME280;51094;53.864;27.676;2022-10-03T18:32:01;97164.84;;;4.32;81.00
64679;BME280;51094;53.864;27.676;2022-10-03T18:34:34;97280.63;;;5.51;81.01
64679;BME280;51094;53.864;27.676;2022-10-03T18:39:53;97277.66;;;5.34;80.51
64679;BME280;51094;53.864;27.676;2022-10-03T18:42:23;97250.94;;;5.15;80.57
64679;BME280;51094;53.864;27.676;2022-10-03T18:44:54;97166.25;;;4.68;80.94
64679;BME280;51094;53.864;27.676;2022-10-03T18:47:40;97292.25;;;5.45;80.93
64679;BME280;51094;53.864;27.676;2022-10-03T18:50:19;97293.78;;;5.48;80.89
64679;BME280;51094;53.864;27.676;2022-10-03T18:52:53;97293.66;;;5.49;80.60
64679;BME280;51094;53.864;27.676;2022-10-03T18:55:28;97301.22;;;5.30;79.69
64679;BME280;51094;53.864;27.676;2022-10-03T19:01:10;97311.53;;;5.62;80.76
64679;BME280;51094;53.864;27.676;2022-10-03T19:03:48;97297.16;;;5.69;80.02
64679;BME280;51094;53.864;27.676;2022-10-03T19:06:35;97291.25;;;5.57;79.91
64679;BME280;51094;53.864;27.676;2022-10-03T19:09:06;97322.38;;;5.65;80.06
64679;BME280;51094;53.864;27.676;2022-10-03T19:15:01;97316.03;;;5.49;80.35
64679;BME280;51094;53.864;27.676;2022-10-03T19:22:54;97324.22;;;5.54;79.31
64679;BME280;51094;53.864;27.676;2022-10-03T19:25:24;97309.97;;;5.39;79.50
64679;BME280;51094;53.864;27.676;2022-10-03T19:27:57;97365.69;;;5.51;79.82
64679;BME280;51094;53.864;27.676;2022-10-03T19:30:27;97187.78;;;4.67;79.58
64679;BME280;51094;53.864;27.676;2022-10-03T19:32:58;97287.47;;;5.20;79.75
64679;BME280;51094;53.864;27.676;2022-10-03T19:35:31;97329.41;;;5.43;79.45
64679;BME280;51094;53.864;27.676;2022-10-03T19:38:16;97321.44;;;5.46;80.00
64679;BME280;51094;53.864;27.676;2022-10-03T19:41:33;97240.56;;;4.94;79.31
64679;BME280;51094;53.864;27.676;2022-10-03T19:44:13;97322.81;;;5.50;79.82
64679;BME280;51094;53.864;27.676;2022-10-03T19:49:25;97389.59;;;5.53;79.33
64679;BME280;51094;53.864;27.676;2022-10-03T19:52:21;97273.22;;;5.25;79.59
64679;BME280;51094;53.864;27.676;2022-10-03T19:55:10;97335.38;;;5.64;79.11
64679;BME280;51094;53.864;27.676;2022-10-03T19:57:53;97360.19;;;5.55;78.61
64679;BME280;51094;53.864;27.676;2022-10-03T20:00:24;97364.75;;;5.52;78.47
64679;BME280;51094;53.864;27.676;2022-10-03T20:02:55;97346.72;;;5.52;78.91
64679;BME280;51094;53.864;27.676;2022-10-03T20:05:28;97325.75;;;5.45;79.02
64679;BME280;51094;53.864;27.676;2022-10-03T20:10:59;97225.97;;;4.83;78.18
64679;BME280;51094;53.864;27.676;2022-10-03T20:13:29;97360.06;;;5.57;78.57
64679;BME280;51094;53.864;27.676;2022-10-03T20:15:57;97357.03;;;5.52;78.16
64679;BME280;51094;53.864;27.676;2022-10-03T20:18:29;97357.53;;;5.34;78.80
64679;BME280;51094;53.864;27.676;2022-10-03T20:21:01;97358.72;;;5.30;79.10
64679;BME280;51094;53.864;27.676;2022-10-03T20:23:34;97367.16;;;5.32;79.38
64679;BME280;51094;53.864;27.676;2022-10-03T20:26:15;97151.47;;;3.84;79.13
64679;BME280;51094;53.864;27.676;2022-10-03T20:29:02;97363.25;;;5.17;79.18
64679;BME280;51094;53.864;27.676;2022-10-03T20:31:34;97278.81;;;4.55;79.46
64679;BME280;51094;53.864;27.676;2022-10-03T20:34:10;97360.53;;;5.19;79.23
64679;BME280;51094;53.864;27.676;2022-10-03T20:36:42;97403.59;;;5.28;79.56
64679;BME280;51094;53.864;27.676;2022-10-03T20:39:29;97341.13;;;5.04;79.76
64679;BME280;51094;53.864;27.676;2022-10-03T20:42:07;97373.16;;;5.22;79.55
64679;BME280;51094;53.864;27.676;2022-10-03T20:44:49;97210.34;;;4.32;79.69
64679;BME280;51094;53.864;27.676;2022-10-03T20:50:36;97271.97;;;4.77;79.81
64679;BME280;51094;53.864;27.676;2022-10-03T20:53:17;96628.19;;;0.69;78.52
64679;BME280;51094;53.864;27.676;2022-10-03T20:55:49;97402.59;;;5.19;79.28
64679;BME280;51094;53.864;27.676;2022-10-03T20:58:28;97408.34;;;5.12;79.39
64679;BME280;51094;53.864;27.676;2022-10-03T21:01:09;97383.97;;;5.16;80.11
64679;BME280;51094;53.864;27.676;2022-10-03T21:03:48;97172.59;;;3.54;79.53
64679;BME280;51094;53.864;27.676;2022-10-03T21:06:29;97402.38;;;4.78;80.16
64679;BME280;51094;53.864;27.676;2022-10-03T21:08:58;97459.75;;;5.02;80.93
64679;BME280;51094;53.864;27.676;2022-10-03T21:11:30;97375.72;;;5.22;80.55
64679;BME280;51094;53.864;27.676;2022-10-03T21:14:02;97384.25;;;5.33;80.56
64679;BME280;51094;53.864;27.676;2022-10-03T21:16:34;97272.94;;;4.76;80.50
64679;BME280;51094;53.864;27.676;2022-10-03T21:19:15;97339.25;;;4.94;79.59
64679;BME280;51094;53.864;27.676;2022-10-03T21:21:50;97291.41;;;4.81;79.75
64679;BME280;51094;53.864;27.676;2022-10-03T21:24:24;97394.31;;;5.48;79.62
64679;BME280;51094;53.864;27.676;2022-10-03T21:27:01;97395.16;;;5.37;79.59
64679;BME280;51094;53.864;27.676;2022-10-03T21:29:33;97398.69;;;5.25;79.53
64679;BME280;51094;53.864;27.676;2022-10-03T21:37:17;97408.22;;;5.13;80.25
64679;BME280;51094;53.864;27.676;2022-10-03T21:39:54;97409.63;;;5.17;80.38
64679;BME280;51094;53.864;27.676;2022-10-03T21:42:30;97412.03;;;5.30;79.71
64679;BME280;51094;53.864;27.676;2022-10-03T21:45:39;97415.31;;;5.21;79.40
64679;BME280;51094;53.864;27.676;2022-10-03T21:48:21;97409.78;;;5.37;80.57
64679;BME280;51094;53.864;27.676;2022-10-03T21:50:52;97419.97;;;5.49;79.90
64679;BME280;51094;53.864;27.676;2022-10-03T21:53:45;97420.53;;;5.53;79.88
64679;BME280;51094;53.864;27.676;2022-10-03T21:56:44;97421.84;;;5.36;79.11
64679;BME280;51094;53.864;27.676;2022-10-03T21:59:24;97428.09;;;5.22;79.58
64679;BME280;51094;53.864;27.676;2022-10-03T22:02:08;97426.47;;;5.10;80.33
64679;BME280;51094;53.864;27.676;2022-10-03T22:07:13;97430.69;;;5.11;81.36
64679;BME280;51094;53.864;27.676;2022-10-03T22:09:49;97427.38;;;5.20;81.09
64679;BME280;51094;53.864;27.676;2022-10-03T22:12:16;97211.28;;;3.97;81.20
64679;BME280;51094;53.864;27.676;2022-10-03T22:17:39;97405.06;;;4.98;80.86
64679;BME280;51094;53.864;27.676;2022-10-03T22:20:18;97433.44;;;5.42;80.59
64679;BME280;51094;53.864;27.676;2022-10-03T22:25:55;97442.72;;;5.22;81.05
64679;BME280;51094;53.864;27.676;2022-10-03T22:28:35;97483.63;;;5.15;81.35
64679;BME280;51094;53.864;27.676;2022-10-03T22:34:01;97446.81;;;5.24;81.54
64679;BME280;51094;53.864;27.676;2022-10-03T22:36:35;97422.28;;;5.09;80.92
64679;BME280;51094;53.864;27.676;2022-10-03T22:39:11;97357.91;;;4.76;81.80
64679;BME280;51094;53.864;27.676;2022-10-03T22:41:39;97466.13;;;5.41;81.86
64679;BME280;51094;53.864;27.676;2022-10-03T22:44:09;97453.59;;;5.48;81.55
64679;BME280;51094;53.864;27.676;2022-10-03T22:46:38;97262.25;;;4.26;80.85
64679;BME280;51094;53.864;27.676;2022-10-03T22:49:11;97461.56;;;5.45;81.38
64679;BME280;51094;53.864;27.676;2022-10-03T22:51:41;97384.81;;;4.94;81.76
64679;BME280;51094;53.864;27.676;2022-10-03T22:54:14;97456.53;;;5.43;81.68
64679;BME280;51094;53.864;27.676;2022-10-03T22:56:49;97454.78;;;5.44;81.58
64679;BME280;51094;53.864;27.676;2022-10-03T22:59:24;97306.19;;;4.34;81.47
64679;BME280;51094;53.864;27.676;2022-10-03T23:01:55;97459.94;;;5.21;82.21
64679;BME280;51094;53.864;27.676;2022-10-03T23:04:35;97404.94;;;4.78;82.15
64679;BME280;51094;53.864;27.676;2022-10-03T23:07:21;97284.47;;;4.27;82.15
64679;BME280;51094;53.864;27.676;2022-10-03T23:10:12;97151.44;;;3.40;81.59
64679;BME280;51094;53.864;27.676;2022-10-03T23:12:48;97247.63;;;4.04;81.61
64679;BME280;51094;53.864;27.676;2022-10-03T23:15:20;97299.19;;;4.36;81.54